sensor_id;sensor_type;location;lat;lon;timestamp;temperature;humidity
33988;DHT22;37428;53.580;-1.666;2023-06-10T00:00:04;11.90;78.10
33988;DHT22;37428;53.580;-1.666;2023-06-10T00:03:19;11.80;79.00
33988;DHT22;37428;53.580;-1.666;2023-06-10T00:06:34;11.90;78.90
33988;DHT22;37428;53.580;-1.666;2023-06-10T00:09:37;12.00;78.50
33988;DHT22;37428;53.580;-1.666;2023-06-10T00:12:39;11.90;78.40
33988;DHT22;37428;53.580;-1.666;2023-06-10T00:15:42;11.90;78.40
33988;DHT22;37428;53.580;-1.666;2023-06-10T00:19:04;12.00;78.50
33988;DHT22;37428;53.580;-1.666;2023-06-10T00:22:13;12.10;78.10
33988;DHT22;37428;53.580;-1.666;2023-06-10T00:25:19;11.90;78.10
33988;DHT22;37428;53.580;-1.666;2023-06-10T00:28:42;12.00;78.00
33988;DHT22;37428;53.580;-1.666;2023-06-10T00:31:51;11.80;78.70
33988;DHT22;37428;53.580;-1.666;2023-06-10T00:35:34;11.70;79.50
33988;DHT22;37428;53.580;-1.666;2023-06-10T00:42:16;11.60;79.70
33988;DHT22;37428;53.580;-1.666;2023-06-10T00:45:30;11.60;80.10
33988;DHT22;37428;53.580;-1.666;2023-06-10T00:48:40;11.50;80.40
33988;DHT22;37428;53.580;-1.666;2023-06-10T00:52:04;11.40;81.20
33988;DHT22;37428;53.580;-1.666;2023-06-10T00:55:33;11.40;81.00
33988;DHT22;37428;53.580;-1.666;2023-06-10T00:59:04;11.40;81.30
33988;DHT22;37428;53.580;-1.666;2023-06-10T01:02:12;11.40;81.10
33988;DHT22;37428;53.580;-1.666;2023-06-10T01:05:44;11.50;81.80
33988;DHT22;37428;53.580;-1.666;2023-06-10T01:09:12;11.60;80.90
33988;DHT22;37428;53.580;-1.666;2023-06-10T01:12:22;11.50;81.30
33988;DHT22;37428;53.580;-1.666;2023-06-10T01:15:33;11.60;81.20
33988;DHT22;37428;53.580;-1.666;2023-06-10T01:22:32;11.50;81.40
33988;DHT22;37428;53.580;-1.666;2023-06-10T01:25:47;11.50;81.90
33988;DHT22;37428;53.580;-1.666;2023-06-10T01:30:56;11.30;82.40
33988;DHT22;37428;53.580;-1.666;2023-06-10T01:33:22;11.40;82.40
33988;DHT22;37428;53.580;-1.666;2023-06-10T01:36:43;11.40;82.10
33988;DHT22;37428;53.580;-1.666;2023-06-10T01:39:49;11.50;82.30
33988;DHT22;37428;53.580;-1.666;2023-06-10T01:42:56;11.40;82.10
33988;DHT22;37428;53.580;-1.666;2023-06-10T01:46:00;11.40;82.10
33988;DHT22;37428;53.580;-1.666;2023-06-10T01:49:12;11.30;82.40
33988;DHT22;37428;53.580;-1.666;2023-06-10T01:52:32;11.30;83.20
33988;DHT22;37428;53.580;-1.666;2023-06-10T01:56:07;11.30;82.60
33988;DHT22;37428;53.580;-1.666;2023-06-10T02:00:54;11.40;82.60
33988;DHT22;37428;53.580;-1.666;2023-06-10T02:02:44;11.40;82.30
33988;DHT22;37428;53.580;-1.666;2023-06-10T02:06:23;11.30;82.60
33988;DHT22;37428;53.580;-1.666;2023-06-10T02:09:31;11.20;82.60
33988;DHT22;37428;53.580;-1.666;2023-06-10T02:13:04;11.20;83.00
33988;DHT22;37428;53.580;-1.666;2023-06-10T02:16:13;11.30;82.90
33988;DHT22;37428;53.580;-1.666;2023-06-10T02:19:32;11.30;82.70
33988;DHT22;37428;53.580;-1.666;2023-06-10T02:22:44;11.40;82.60
33988;DHT22;37428;53.580;-1.666;2023-06-10T02:25:47;11.50;82.30
33988;DHT22;37428;53.580;-1.666;2023-06-10T02:28:59;11.50;82.00
33988;DHT22;37428;53.580;-1.666;2023-06-10T02:32:15;11.50;82.00
33988;DHT22;37428;53.580;-1.666;2023-06-10T02:35:23;11.60;81.90
33988;DHT22;37428;53.580;-1.666;2023-06-10T02:38:30;11.60;81.70
33988;DHT22;37428;53.580;-1.666;2023-06-10T02:41:48;11.50;81.50
33988;DHT22;37428;53.580;-1.666;2023-06-10T02:45:16;11.50;81.60
33988;DHT22;37428;53.580;-1.666;2023-06-10T02:48:24;11.50;81.80
33988;DHT22;37428;53.580;-1.666;2023-06-10T02:51:33;11.50;81.90
33988;DHT22;37428;53.580;-1.666;2023-06-10T02:55:01;11.50;81.50
33988;DHT22;37428;53.580;-1.666;2023-06-10T02:58:23;11.50;82.10
33988;DHT22;37428;53.580;-1.666;2023-06-10T03:01:45;11.40;82.50
33988;DHT22;37428;53.580;-1.666;2023-06-10T03:05:03;11.40;83.00
33988;DHT22;37428;53.580;-1.666;2023-06-10T03:08:21;11.40;83.30
33988;DHT22;37428;53.580;-1.666;2023-06-10T03:11:37;11.20;83.50
33988;DHT22;37428;53.580;-1.666;2023-06-10T03:14:41;11.20;84.70
33988;DHT22;37428;53.580;-1.666;2023-06-10T03:19:21;11.30;84.60
33988;DHT22;37428;53.580;-1.666;2023-06-10T03:21:11;11.30;84.10
33988;DHT22;37428;53.580;-1.666;2023-06-10T03:24:54;11.40;84.50
33988;DHT22;37428;53.580;-1.666;2023-06-10T03:27:52;11.40;83.90
33988;DHT22;37428;53.580;-1.666;2023-06-10T03:31:10;11.40;83.80
33988;DHT22;37428;53.580;-1.666;2023-06-10T03:34:19;11.40;83.70
33988;DHT22;37428;53.580;-1.666;2023-06-10T03:37:24;11.40;83.10
33988;DHT22;37428;53.580;-1.666;2023-06-10T03:40:32;11.40;82.10
33988;DHT22;37428;53.580;-1.666;2023-06-10T03:43:34;11.40;82.20
33988;DHT22;37428;53.580;-1.666;2023-06-10T03:50:18;11.50;81.70
33988;DHT22;37428;53.580;-1.666;2023-06-10T03:53:45;11.50;81.50
33988;DHT22;37428;53.580;-1.666;2023-06-10T03:56:51;11.50;81.50
33988;DHT22;37428;53.580;-1.666;2023-06-10T04:00:01;11.50;80.70
33988;DHT22;37428;53.580;-1.666;2023-06-10T04:03:23;11.50;80.30
33988;DHT22;37428;53.580;-1.666;2023-06-10T04:06:36;11.50;80.10
33988;DHT22;37428;53.580;-1.666;2023-06-10T04:09:40;11.60;79.70
33988;DHT22;37428;53.580;-1.666;2023-06-10T04:12:46;11.60;79.30
33988;DHT22;37428;53.580;-1.666;2023-06-10T04:16:03;11.50;79.20
33988;DHT22;37428;53.580;-1.666;2023-06-10T04:19:33;11.60;79.20
33988;DHT22;37428;53.580;-1.666;2023-06-10T04:23:02;11.60;79.20
33988;DHT22;37428;53.580;-1.666;2023-06-10T04:26:07;11.60;78.80
33988;DHT22;37428;53.580;-1.666;2023-06-10T04:29:09;11.60;78.90
33988;DHT22;37428;53.580;-1.666;2023-06-10T04:32:11;11.70;78.90
33988;DHT22;37428;53.580;-1.666;2023-06-10T04:35:16;11.70;78.80
33988;DHT22;37428;53.580;-1.666;2023-06-10T04:38:35;11.70;78.90
33988;DHT22;37428;53.580;-1.666;2023-06-10T04:41:40;11.60;78.10
33988;DHT22;37428;53.580;-1.666;2023-06-10T04:44:56;11.60;78.90
33988;DHT22;37428;53.580;-1.666;2023-06-10T04:48:19;11.60;78.70
33988;DHT22;37428;53.580;-1.666;2023-06-10T04:51:28;11.70;78.80
33988;DHT22;37428;53.580;-1.666;2023-06-10T04:54:49;11.70;78.90
33988;DHT22;37428;53.580;-1.666;2023-06-10T04:57:53;11.80;78.90
33988;DHT22;37428;53.580;-1.666;2023-06-10T05:01:04;11.90;78.30
33988;DHT22;37428;53.580;-1.666;2023-06-10T05:04:13;11.90;78.10
33988;DHT22;37428;53.580;-1.666;2023-06-10T05:07:21;12.00;78.10
33988;DHT22;37428;53.580;-1.666;2023-06-10T05:10:32;12.00;78.40
33988;DHT22;37428;53.580;-1.666;2023-06-10T05:13:37;12.10;78.60
33988;DHT22;37428;53.580;-1.666;2023-06-10T05:16:47;12.20;78.20
33988;DHT22;37428;53.580;-1.666;2023-06-10T05:19:52;12.20;77.90
33988;DHT22;37428;53.580;-1.666;2023-06-10T05:22:55;12.20;78.10
33988;DHT22;37428;53.580;-1.666;2023-06-10T05:30:01;12.30;77.40
33988;DHT22;37428;53.580;-1.666;2023-06-10T05:33:15;12.40;76.90
33988;DHT22;37428;53.580;-1.666;2023-06-10T05:36:25;12.40;76.40
33988;DHT22;37428;53.580;-1.666;2023-06-10T05:40:00;12.30;76.10
33988;DHT22;37428;53.580;-1.666;2023-06-10T05:43:06;12.40;76.00
33988;DHT22;37428;53.580;-1.666;2023-06-10T05:46:18;12.40;76.10
33988;DHT22;37428;53.580;-1.666;2023-06-10T05:49:31;12.50;76.50
33988;DHT22;37428;53.580;-1.666;2023-06-10T05:52:35;12.60;76.10
33988;DHT22;37428;53.580;-1.666;2023-06-10T05:55:56;12.60;75.70
33988;DHT22;37428;53.580;-1.666;2023-06-10T05:59:02;12.70;76.00
33988;DHT22;37428;53.580;-1.666;2023-06-10T06:02:14;12.80;75.90
33988;DHT22;37428;53.580;-1.666;2023-06-10T06:08:50;12.80;75.90
33988;DHT22;37428;53.580;-1.666;2023-06-10T06:11:52;12.90;75.40
33988;DHT22;37428;53.580;-1.666;2023-06-10T06:14:56;12.90;76.00
33988;DHT22;37428;53.580;-1.666;2023-06-10T06:18:01;13.00;75.80
33988;DHT22;37428;53.580;-1.666;2023-06-10T06:21:38;13.20;75.90
33988;DHT22;37428;53.580;-1.666;2023-06-10T06:24:42;13.30;75.10
33988;DHT22;37428;53.580;-1.666;2023-06-10T06:28:16;13.50;74.70
33988;DHT22;37428;53.580;-1.666;2023-06-10T06:31:11;13.60;74.80
33988;DHT22;37428;53.580;-1.666;2023-06-10T06:34:16;13.60;73.90
33988;DHT22;37428;53.580;-1.666;2023-06-10T06:39:03;13.70;73.70
33988;DHT22;37428;53.580;-1.666;2023-06-10T06:44:50;14.10;73.40
33988;DHT22;37428;53.580;-1.666;2023-06-10T06:48:12;14.20;72.90
33988;DHT22;37428;53.580;-1.666;2023-06-10T06:51:21;14.40;72.20
33988;DHT22;37428;53.580;-1.666;2023-06-10T06:54:25;14.60;72.10
33988;DHT22;37428;53.580;-1.666;2023-06-10T07:01:24;15.10;70.30
33988;DHT22;37428;53.580;-1.666;2023-06-10T07:04:51;15.40;69.20
33988;DHT22;37428;53.580;-1.666;2023-06-10T07:08:12;15.40;69.30
33988;DHT22;37428;53.580;-1.666;2023-06-10T07:11:15;15.60;68.80
33988;DHT22;37428;53.580;-1.666;2023-06-10T07:14:57;15.70;68.40
33988;DHT22;37428;53.580;-1.666;2023-06-10T07:18:15;15.80;68.50
33988;DHT22;37428;53.580;-1.666;2023-06-10T07:21:24;16.10;67.20
33988;DHT22;37428;53.580;-1.666;2023-06-10T07:24:38;16.30;67.40
33988;DHT22;37428;53.580;-1.666;2023-06-10T07:27:42;16.60;66.00
33988;DHT22;37428;53.580;-1.666;2023-06-10T07:30:44;16.70;66.20
33988;DHT22;37428;53.580;-1.666;2023-06-10T07:33:46;16.90;65.00
33988;DHT22;37428;53.580;-1.666;2023-06-10T07:36:50;17.10;64.10
33988;DHT22;37428;53.580;-1.666;2023-06-10T07:39:52;17.20;64.20
33988;DHT22;37428;53.580;-1.666;2023-06-10T07:42:55;17.50;63.70
33988;DHT22;37428;53.580;-1.666;2023-06-10T07:46:00;17.70;62.80
33988;DHT22;37428;53.580;-1.666;2023-06-10T07:49:28;17.70;63.20
33988;DHT22;37428;53.580;-1.666;2023-06-10T07:52:39;17.90;62.60
33988;DHT22;37428;53.580;-1.666;2023-06-10T07:55:51;18.00;62.20
33988;DHT22;37428;53.580;-1.666;2023-06-10T07:59:05;17.90;61.70
33988;DHT22;37428;53.580;-1.666;2023-06-10T08:02:07;18.00;62.20
33988;DHT22;37428;53.580;-1.666;2023-06-10T08:05:23;18.30;61.80
33988;DHT22;37428;53.580;-1.666;2023-06-10T08:08:53;18.30;60.20
33988;DHT22;37428;53.580;-1.666;2023-06-10T08:12:56;18.30;61.40
33988;DHT22;37428;53.580;-1.666;2023-06-10T08:15:50;18.20;60.70
33988;DHT22;37428;53.580;-1.666;2023-06-10T08:19:03;18.60;61.00
33988;DHT22;37428;53.580;-1.666;2023-06-10T08:22:16;18.80;59.60
33988;DHT22;37428;53.580;-1.666;2023-06-10T08:25:43;18.90;59.70
33988;DHT22;37428;53.580;-1.666;2023-06-10T08:28:52;19.10;59.40
33988;DHT22;37428;53.580;-1.666;2023-06-10T08:32:02;19.10;59.40
33988;DHT22;37428;53.580;-1.666;2023-06-10T08:35:06;19.40;59.90
33988;DHT22;37428;53.580;-1.666;2023-06-10T08:38:22;19.40;58.40
33988;DHT22;37428;53.580;-1.666;2023-06-10T08:42:00;19.70;59.50
33988;DHT22;37428;53.580;-1.666;2023-06-10T08:45:16;20.10;59.00
33988;DHT22;37428;53.580;-1.666;2023-06-10T08:48:21;20.40;56.90
33988;DHT22;37428;53.580;-1.666;2023-06-10T08:51:23;20.30;56.00
33988;DHT22;37428;53.580;-1.666;2023-06-10T08:54:43;20.30;56.00
33988;DHT22;37428;53.580;-1.666;2023-06-10T08:57:54;20.60;56.10
33988;DHT22;37428;53.580;-1.666;2023-06-10T09:00:56;20.70;55.20
33988;DHT22;37428;53.580;-1.666;2023-06-10T09:03:59;21.00;56.00
33988;DHT22;37428;53.580;-1.666;2023-06-10T09:07:25;21.30;54.40
33988;DHT22;37428;53.580;-1.666;2023-06-10T09:10:37;21.50;53.90
33988;DHT22;37428;53.580;-1.666;2023-06-10T09:17:30;21.80;52.70
33988;DHT22;37428;53.580;-1.666;2023-06-10T09:20:46;21.80;52.80
33988;DHT22;37428;53.580;-1.666;2023-06-10T09:24:36;21.80;52.60
33988;DHT22;37428;53.580;-1.666;2023-06-10T09:27:44;22.20;53.50
33988;DHT22;37428;53.580;-1.666;2023-06-10T09:31:03;22.20;52.50
33988;DHT22;37428;53.580;-1.666;2023-06-10T09:34:17;22.60;52.20
33988;DHT22;37428;53.580;-1.666;2023-06-10T09:37:31;22.60;50.80
33988;DHT22;37428;53.580;-1.666;2023-06-10T09:41:10;22.50;51.60
33988;DHT22;37428;53.580;-1.666;2023-06-10T09:45:07;22.80;51.20
33988;DHT22;37428;53.580;-1.666;2023-06-10T09:48:19;23.10;51.00
33988;DHT22;37428;53.580;-1.666;2023-06-10T09:51:52;23.10;49.80
33988;DHT22;37428;53.580;-1.666;2023-06-10T09:54:58;22.80;50.50
33988;DHT22;37428;53.580;-1.666;2023-06-10T09:58:01;23.00;50.90
33988;DHT22;37428;53.580;-1.666;2023-06-10T10:01:05;23.20;50.70
33988;DHT22;37428;53.580;-1.666;2023-06-10T10:04:55;23.50;50.30
33988;DHT22;37428;53.580;-1.666;2023-06-10T10:11:27;23.60;49.40
33988;DHT22;37428;53.580;-1.666;2023-06-10T10:14:38;23.80;49.80
33988;DHT22;37428;53.580;-1.666;2023-06-10T10:17:45;24.10;48.80
33988;DHT22;37428;53.580;-1.666;2023-06-10T10:20:52;24.30;48.50
33988;DHT22;37428;53.580;-1.666;2023-06-10T10:24:17;24.50;47.80
33988;DHT22;37428;53.580;-1.666;2023-06-10T10:28:15;24.90;47.60
33988;DHT22;37428;53.580;-1.666;2023-06-10T10:31:29;25.10;47.40
33988;DHT22;37428;53.580;-1.666;2023-06-10T10:35:06;25.20;46.10
33988;DHT22;37428;53.580;-1.666;2023-06-10T10:38:09;25.40;47.30
33988;DHT22;37428;53.580;-1.666;2023-06-10T10:41:21;25.30;45.60
33988;DHT22;37428;53.580;-1.666;2023-06-10T10:44:27;25.00;46.10
33988;DHT22;37428;53.580;-1.666;2023-06-10T10:47:30;25.20;46.70
33988;DHT22;37428;53.580;-1.666;2023-06-10T10:50:34;25.10;46.50
33988;DHT22;37428;53.580;-1.666;2023-06-10T10:53:38;24.90;47.30
33988;DHT22;37428;53.580;-1.666;2023-06-10T10:57:23;24.90;47.70
33988;DHT22;37428;53.580;-1.666;2023-06-10T11:00:32;25.30;47.20
33988;DHT22;37428;53.580;-1.666;2023-06-10T11:03:52;25.30;46.80
33988;DHT22;37428;53.580;-1.666;2023-06-10T11:07:12;25.30;47.30
33988;DHT22;37428;53.580;-1.666;2023-06-10T11:10:16;25.50;46.50
33988;DHT22;37428;53.580;-1.666;2023-06-10T11:13:20;25.60;46.90
33988;DHT22;37428;53.580;-1.666;2023-06-10T11:16:26;25.90;46.00
33988;DHT22;37428;53.580;-1.666;2023-06-10T11:19:32;25.90;45.80
33988;DHT22;37428;53.580;-1.666;2023-06-10T11:22:59;25.70;47.50
33988;DHT22;37428;53.580;-1.666;2023-06-10T11:26:29;25.90;46.00
33988;DHT22;37428;53.580;-1.666;2023-06-10T11:29:35;26.10;46.20
33988;DHT22;37428;53.580;-1.666;2023-06-10T11:32:42;26.10;46.80
33988;DHT22;37428;53.580;-1.666;2023-06-10T11:35:48;26.30;46.20
33988;DHT22;37428;53.580;-1.666;2023-06-10T11:38:55;26.30;45.90
33988;DHT22;37428;53.580;-1.666;2023-06-10T11:42:04;26.80;46.30
33988;DHT22;37428;53.580;-1.666;2023-06-10T11:45:07;26.80;44.70
33988;DHT22;37428;53.580;-1.666;2023-06-10T11:48:13;26.70;45.60
33988;DHT22;37428;53.580;-1.666;2023-06-10T11:51:15;26.80;46.20
33988;DHT22;37428;53.580;-1.666;2023-06-10T11:54:19;26.80;45.60
33988;DHT22;37428;53.580;-1.666;2023-06-10T11:57:22;27.00;46.40
33988;DHT22;37428;53.580;-1.666;2023-06-10T12:00:24;27.50;44.70
33988;DHT22;37428;53.580;-1.666;2023-06-10T12:03:50;27.60;44.10
33988;DHT22;37428;53.580;-1.666;2023-06-10T12:06:57;27.80;44.60
33988;DHT22;37428;53.580;-1.666;2023-06-10T12:09:59;28.00;43.70
33988;DHT22;37428;53.580;-1.666;2023-06-10T12:13:01;27.80;43.90
33988;DHT22;37428;53.580;-1.666;2023-06-10T12:16:08;28.10;43.50
33988;DHT22;37428;53.580;-1.666;2023-06-10T12:19:12;27.80;43.50
33988;DHT22;37428;53.580;-1.666;2023-06-10T12:22:20;27.90;44.20
33988;DHT22;37428;53.580;-1.666;2023-06-10T12:25:28;27.50;44.20
33988;DHT22;37428;53.580;-1.666;2023-06-10T12:28:32;27.50;44.90
33988;DHT22;37428;53.580;-1.666;2023-06-10T12:31:58;27.80;45.20
33988;DHT22;37428;53.580;-1.666;2023-06-10T12:35:20;28.20;44.20
33988;DHT22;37428;53.580;-1.666;2023-06-10T12:38:40;28.30;43.40
33988;DHT22;37428;53.580;-1.666;2023-06-10T12:42:03;28.20;44.10
33988;DHT22;37428;53.580;-1.666;2023-06-10T12:45:25;28.20;43.70
33988;DHT22;37428;53.580;-1.666;2023-06-10T12:48:29;28.30;43.50
33988;DHT22;37428;53.580;-1.666;2023-06-10T12:51:32;28.80;44.40
33988;DHT22;37428;53.580;-1.666;2023-06-10T12:54:35;29.00;42.30
33988;DHT22;37428;53.580;-1.666;2023-06-10T12:57:37;29.20;42.00
33988;DHT22;37428;53.580;-1.666;2023-06-10T13:00:39;29.30;41.30
33988;DHT22;37428;53.580;-1.666;2023-06-10T13:03:42;28.90;40.80
33988;DHT22;37428;53.580;-1.666;2023-06-10T13:06:48;29.00;41.80
33988;DHT22;37428;53.580;-1.666;2023-06-10T13:09:50;29.10;40.70
33988;DHT22;37428;53.580;-1.666;2023-06-10T13:12:52;28.90;41.80
33988;DHT22;37428;53.580;-1.666;2023-06-10T13:15:56;29.20;41.50
33988;DHT22;37428;53.580;-1.666;2023-06-10T13:18:57;29.40;41.40
33988;DHT22;37428;53.580;-1.666;2023-06-10T13:22:04;29.50;40.40
33988;DHT22;37428;53.580;-1.666;2023-06-10T13:25:12;29.40;40.40
33988;DHT22;37428;53.580;-1.666;2023-06-10T13:28:17;29.30;41.00
33988;DHT22;37428;53.580;-1.666;2023-06-10T13:31:19;29.70;40.50
33988;DHT22;37428;53.580;-1.666;2023-06-10T13:34:23;29.70;40.10
33988;DHT22;37428;53.580;-1.666;2023-06-10T13:37:26;29.50;40.70
33988;DHT22;37428;53.580;-1.666;2023-06-10T13:40:30;29.20;40.90
33988;DHT22;37428;53.580;-1.666;2023-06-10T13:43:32;29.10;41.10
33988;DHT22;37428;53.580;-1.666;2023-06-10T13:46:34;29.20;40.60
33988;DHT22;37428;53.580;-1.666;2023-06-10T13:49:36;29.50;40.90
33988;DHT22;37428;53.580;-1.666;2023-06-10T13:52:41;29.40;40.30
33988;DHT22;37428;53.580;-1.666;2023-06-10T13:55:44;29.10;40.50
33988;DHT22;37428;53.580;-1.666;2023-06-10T13:58:45;29.20;40.80
33988;DHT22;37428;53.580;-1.666;2023-06-10T14:01:47;29.10;41.50
33988;DHT22;37428;53.580;-1.666;2023-06-10T14:04:49;29.30;41.10
33988;DHT22;37428;53.580;-1.666;2023-06-10T14:07:55;29.40;40.70
33988;DHT22;37428;53.580;-1.666;2023-06-10T14:10:57;29.20;41.10
33988;DHT22;37428;53.580;-1.666;2023-06-10T14:13:59;29.20;41.30
33988;DHT22;37428;53.580;-1.666;2023-06-10T14:17:01;29.20;41.10
33988;DHT22;37428;53.580;-1.666;2023-06-10T14:20:04;29.20;40.60
33988;DHT22;37428;53.580;-1.666;2023-06-10T14:23:15;29.40;41.00
33988;DHT22;37428;53.580;-1.666;2023-06-10T14:26:17;29.50;40.60
33988;DHT22;37428;53.580;-1.666;2023-06-10T14:29:21;29.40;39.70
33988;DHT22;37428;53.580;-1.666;2023-06-10T14:32:25;29.40;39.80
33988;DHT22;37428;53.580;-1.666;2023-06-10T14:35:29;29.40;39.40
33988;DHT22;37428;53.580;-1.666;2023-06-10T14:38:33;29.30;40.00
33988;DHT22;37428;53.580;-1.666;2023-06-10T14:41:36;29.30;41.30
33988;DHT22;37428;53.580;-1.666;2023-06-10T14:44:38;29.40;39.30
33988;DHT22;37428;53.580;-1.666;2023-06-10T14:47:41;29.20;39.50
33988;DHT22;37428;53.580;-1.666;2023-06-10T14:50:43;29.20;40.50
33988;DHT22;37428;53.580;-1.666;2023-06-10T14:53:48;29.20;40.10
33988;DHT22;37428;53.580;-1.666;2023-06-10T14:56:51;29.40;39.80
33988;DHT22;37428;53.580;-1.666;2023-06-10T14:59:53;29.30;40.00
33988;DHT22;37428;53.580;-1.666;2023-06-10T15:02:56;29.30;40.10
33988;DHT22;37428;53.580;-1.666;2023-06-10T15:05:58;29.20;40.40
33988;DHT22;37428;53.580;-1.666;2023-06-10T15:09:03;29.30;39.80
33988;DHT22;37428;53.580;-1.666;2023-06-10T15:12:05;29.30;39.90
33988;DHT22;37428;53.580;-1.666;2023-06-10T15:15:14;29.50;39.50
33988;DHT22;37428;53.580;-1.666;2023-06-10T15:18:16;29.60;38.30
33988;DHT22;37428;53.580;-1.666;2023-06-10T15:21:19;29.40;39.00
33988;DHT22;37428;53.580;-1.666;2023-06-10T15:24:22;29.40;38.60
33988;DHT22;37428;53.580;-1.666;2023-06-10T15:27:26;29.40;39.00
33988;DHT22;37428;53.580;-1.666;2023-06-10T15:30:28;29.30;39.00
33988;DHT22;37428;53.580;-1.666;2023-06-10T15:33:31;29.30;38.60
33988;DHT22;37428;53.580;-1.666;2023-06-10T15:36:33;29.10;39.10
33988;DHT22;37428;53.580;-1.666;2023-06-10T15:39:40;29.20;39.00
33988;DHT22;37428;53.580;-1.666;2023-06-10T15:42:42;29.10;39.50
33988;DHT22;37428;53.580;-1.666;2023-06-10T15:45:44;29.10;38.90
33988;DHT22;37428;53.580;-1.666;2023-06-10T15:48:46;29.10;39.10
33988;DHT22;37428;53.580;-1.666;2023-06-10T15:51:53;29.00;39.50
33988;DHT22;37428;53.580;-1.666;2023-06-10T15:54:57;28.80;40.00
33988;DHT22;37428;53.580;-1.666;2023-06-10T15:57:59;28.70;40.10
33988;DHT22;37428;53.580;-1.666;2023-06-10T16:01:11;28.70;40.70
33988;DHT22;37428;53.580;-1.666;2023-06-10T16:05:49;28.50;40.70
33988;DHT22;37428;53.580;-1.666;2023-06-10T16:07:43;28.40;41.00
33988;DHT22;37428;53.580;-1.666;2023-06-10T16:10:46;28.30;41.20
33988;DHT22;37428;53.580;-1.666;2023-06-10T16:13:48;28.40;41.60
33988;DHT22;37428;53.580;-1.666;2023-06-10T16:16:50;28.50;40.60
33988;DHT22;37428;53.580;-1.666;2023-06-10T16:19:51;28.40;40.70
33988;DHT22;37428;53.580;-1.666;2023-06-10T16:22:55;28.30;41.00
33988;DHT22;37428;53.580;-1.666;2023-06-10T16:25:58;28.10;41.50
33988;DHT22;37428;53.580;-1.666;2023-06-10T16:32:26;27.90;41.60
33988;DHT22;37428;53.580;-1.666;2023-06-10T16:35:58;27.70;41.90
33988;DHT22;37428;53.580;-1.666;2023-06-10T16:38:53;27.60;42.10
33988;DHT22;37428;53.580;-1.666;2023-06-10T16:41:57;27.50;42.40
33988;DHT22;37428;53.580;-1.666;2023-06-10T16:44:58;27.40;42.30
33988;DHT22;37428;53.580;-1.666;2023-06-10T16:48:11;27.20;43.20
33988;DHT22;37428;53.580;-1.666;2023-06-10T16:51:28;27.00;43.10
33988;DHT22;37428;53.580;-1.666;2023-06-10T16:54:42;26.90;43.70
33988;DHT22;37428;53.580;-1.666;2023-06-10T16:57:46;26.90;43.50
33988;DHT22;37428;53.580;-1.666;2023-06-10T17:00:47;26.90;44.10
33988;DHT22;37428;53.580;-1.666;2023-06-10T17:03:57;26.90;43.60
33988;DHT22;37428;53.580;-1.666;2023-06-10T17:06:59;26.60;43.70
33988;DHT22;37428;53.580;-1.666;2023-06-10T17:10:01;26.60;44.00
33988;DHT22;37428;53.580;-1.666;2023-06-10T17:13:04;26.50;44.10
33988;DHT22;37428;53.580;-1.666;2023-06-10T17:16:06;26.30;44.40
33988;DHT22;37428;53.580;-1.666;2023-06-10T17:19:19;26.20;44.60
33988;DHT22;37428;53.580;-1.666;2023-06-10T17:22:31;26.20;44.90
33988;DHT22;37428;53.580;-1.666;2023-06-10T17:25:33;26.20;45.10
33988;DHT22;37428;53.580;-1.666;2023-06-10T17:28:38;26.10;44.60
33988;DHT22;37428;53.580;-1.666;2023-06-10T17:31:42;26.00;45.00
33988;DHT22;37428;53.580;-1.666;2023-06-10T17:34:48;25.90;45.30
33988;DHT22;37428;53.580;-1.666;2023-06-10T17:37:57;25.80;45.40
33988;DHT22;37428;53.580;-1.666;2023-06-10T17:41:01;25.70;45.10
33988;DHT22;37428;53.580;-1.666;2023-06-10T17:44:12;25.50;45.80
33988;DHT22;37428;53.580;-1.666;2023-06-10T17:47:22;25.40;45.80
33988;DHT22;37428;53.580;-1.666;2023-06-10T17:50:25;25.30;45.80
33988;DHT22;37428;53.580;-1.666;2023-06-10T17:53:42;25.10;45.80
33988;DHT22;37428;53.580;-1.666;2023-06-10T17:56:50;25.10;46.20
33988;DHT22;37428;53.580;-1.666;2023-06-10T18:00:03;25.00;46.70
33988;DHT22;37428;53.580;-1.666;2023-06-10T18:03:08;25.00;46.70
33988;DHT22;37428;53.580;-1.666;2023-06-10T18:06:20;24.90;46.70
33988;DHT22;37428;53.580;-1.666;2023-06-10T18:09:28;24.70;46.70
33988;DHT22;37428;53.580;-1.666;2023-06-10T18:12:39;24.60;46.90
33988;DHT22;37428;53.580;-1.666;2023-06-10T18:15:49;24.50;47.30
33988;DHT22;37428;53.580;-1.666;2023-06-10T18:18:51;24.50;47.80
33988;DHT22;37428;53.580;-1.666;2023-06-10T18:21:53;24.40;48.10
33988;DHT22;37428;53.580;-1.666;2023-06-10T18:28:19;24.40;48.30
33988;DHT22;37428;53.580;-1.666;2023-06-10T18:34:40;24.10;47.80
33988;DHT22;37428;53.580;-1.666;2023-06-10T18:38:06;24.00;48.30
33988;DHT22;37428;53.580;-1.666;2023-06-10T18:41:09;23.90;48.70
33988;DHT22;37428;53.580;-1.666;2023-06-10T18:44:12;23.80;49.00
33988;DHT22;37428;53.580;-1.666;2023-06-10T18:47:14;23.70;49.30
33988;DHT22;37428;53.580;-1.666;2023-06-10T18:50:19;23.60;49.20
33988;DHT22;37428;53.580;-1.666;2023-06-10T18:53:21;23.50;49.60
33988;DHT22;37428;53.580;-1.666;2023-06-10T18:56:29;23.40;49.70
33988;DHT22;37428;53.580;-1.666;2023-06-10T18:59:33;23.30;49.70
33988;DHT22;37428;53.580;-1.666;2023-06-10T19:02:36;23.20;50.00
33988;DHT22;37428;53.580;-1.666;2023-06-10T19:05:39;23.10;50.10
33988;DHT22;37428;53.580;-1.666;2023-06-10T19:08:43;23.10;50.00
33988;DHT22;37428;53.580;-1.666;2023-06-10T19:11:45;23.00;50.10
33988;DHT22;37428;53.580;-1.666;2023-06-10T19:14:47;22.90;50.20
33988;DHT22;37428;53.580;-1.666;2023-06-10T19:17:49;22.80;50.50
33988;DHT22;37428;53.580;-1.666;2023-06-10T19:20:52;22.70;50.50
33988;DHT22;37428;53.580;-1.666;2023-06-10T19:24:06;22.70;50.80
33988;DHT22;37428;53.580;-1.666;2023-06-10T19:30:33;22.50;51.10
33988;DHT22;37428;53.580;-1.666;2023-06-10T19:33:37;22.40;51.40
33988;DHT22;37428;53.580;-1.666;2023-06-10T19:36:44;22.40;52.60
33988;DHT22;37428;53.580;-1.666;2023-06-10T19:39:46;22.40;53.70
33988;DHT22;37428;53.580;-1.666;2023-06-10T19:42:52;22.30;53.80
33988;DHT22;37428;53.580;-1.666;2023-06-10T19:45:55;22.20;54.00
33988;DHT22;37428;53.580;-1.666;2023-06-10T19:48:57;22.20;54.70
33988;DHT22;37428;53.580;-1.666;2023-06-10T19:52:06;22.20;55.30
33988;DHT22;37428;53.580;-1.666;2023-06-10T19:55:08;22.10;56.00
33988;DHT22;37428;53.580;-1.666;2023-06-10T19:58:10;22.10;56.50
33988;DHT22;37428;53.580;-1.666;2023-06-10T20:01:13;21.90;56.90
33988;DHT22;37428;53.580;-1.666;2023-06-10T20:04:15;21.70;57.40
33988;DHT22;37428;53.580;-1.666;2023-06-10T20:07:22;21.60;57.90
33988;DHT22;37428;53.580;-1.666;2023-06-10T20:10:26;21.50;58.20
33988;DHT22;37428;53.580;-1.666;2023-06-10T20:13:30;21.50;58.40
33988;DHT22;37428;53.580;-1.666;2023-06-10T20:16:37;21.40;58.50
33988;DHT22;37428;53.580;-1.666;2023-06-10T20:19:40;21.10;59.20
33988;DHT22;37428;53.580;-1.666;2023-06-10T20:22:53;20.80;60.00
33988;DHT22;37428;53.580;-1.666;2023-06-10T20:25:57;20.60;60.60
33988;DHT22;37428;53.580;-1.666;2023-06-10T20:29:30;20.40;61.30